• Join FlightAware (Why Join?)
  • Login
  • US Flag 
03:25PM EST


 

Airport Tracker/Info


-or-


 

Live Flight TrackerFlight Track Log ✈ AWE1253 ✈ 22-Apr-2013 ✈ KPHL - KTPA

Flight Track Log - Related Links

Times and Time Zones

All times are in EDT time to prevent confusion due to time zone crossing. See the AWE1253 flight status page for this flight to view local times or setup timezone preferences in your user account.

Time Position Orientation Groundspeed Altitude Reporting Facility
EDT Latitude Longitude Course Direction KTS MPH feet Rate Location/Type
09:04PM 39.8783 -75.2111 233° Southwest 150 173 1,300  Level FAA TRACON SMA TRACON (SMA)
09:05PM 39.8822 -75.1947 73° East 152 175 2,100 2,520 Climbing FAA TRACON SMA TRACON (SMA)
09:05PM 39.8894 -75.1686 70° East 193 222 3,000 3,120 Climbing FAA TRACON SMA TRACON (SMA)
09:05PM 39.8972 -75.1475 64° Northeast 209 241 4,200 2,700 Climbing FAA TRACON SMA TRACON (SMA)
09:06PM 39.9103 -75.1364 33° Northeast 199 229 4,800 1,800 Climbing FAA TRACON SMA TRACON (SMA)
09:06PM 39.9372 -75.1408 353° North 249 287 5,400 2,520 Climbing FAA TRACON SMA TRACON (SMA)
09:06PM 39.9531 -75.1592 318° Northwest 244 281 6,500 2,520 Climbing FAA TRACON SMA TRACON (SMA)
09:07PM 39.8334 -75.7165 270° West  Level FlightAware Approximate
09:07PM 39.9667 -75.1767 315° West 245 282 7,100  Level FAA TRACON SMA TRACON (SMA)
09:07PM 39.9742 -75.2153 284° West 272 313 8,100 2,700 Climbing FAA TRACON SMA TRACON (SMA)
09:07PM 39.9706 -75.2453 261° West 274 315 8,900 2,400 Climbing FAA TRACON SMA TRACON (SMA)
09:08PM 39.7874 -75.8600 232° Southwest  Level FlightAware Approximate
09:08PM 39.9636 -75.2703 250° West 271 312 9,700  Level FAA TRACON SMA TRACON (SMA)
09:08PM 39.9544 -75.3092 253° West 268 308 10,000 420 Climbing FAA TRACON SMA TRACON (SMA)
09:08PM 39.9475 -75.3381 253° West 271 312 10,000  Level FAA TRACON SMA TRACON (SMA)
09:09PM 39.7067 -75.9856 226° Southwest  Level FlightAware Approximate
09:09PM 39.9392 -75.3731 253° West 274 315 10,000  Level FAA TRACON SMA TRACON (SMA)
09:09PM 39.9319 -75.4047 253° West 281 323 10,000  Level FAA TRACON SMA TRACON (SMA)
09:10PM 39.6297 -76.1146 233° Southwest  Level FlightAware Approximate
09:10PM 39.9247 -75.4353 253° West 288 331 10,000  Level FAA TRACON SMA TRACON (SMA)
09:10PM 39.9158 -75.4744 254° West 293 337 10,000  Level FAA TRACON SMA TRACON (SMA)
09:10PM 39.9083 -75.5064 253° West 296 341 10,000 420 Level FAA TRACON SMA TRACON (SMA)
09:11PM 39.9011 -75.5383 254° West 298 343 10,300 1,320 Climbing FAA TRACON SMA TRACON (SMA)
09:11PM 39.8919 -75.5764 253° West 295 339 10,900 1,380 Climbing FAA TRACON SMA TRACON (SMA)
09:11PM 39.8842 -75.6083 252° West 294 338 11,200 720 Climbing FAA TRACON SMA TRACON (SMA)
09:11PM 39.8761 -75.6394 251° West 293 337 11,400 420 Climbing FAA TRACON SMA TRACON (SMA)
09:12PM 39.8728 -75.6553 255° West 295 339 11,500 2,040 Climbing FAA TRACON SMA TRACON (SMA)
09:14PM 39.8064 -75.8458 246° West 335 386 15,800 3,120 Climbing New York Center
09:15PM 39.8044 -75.9836 269° West 318 366 20,100 3,420 Climbing New York Center
09:16PM 39.8308 -76.0908 288° West 309 356 22,600 2,160 Climbing New York Center
09:17PM 39.8489 -76.1978 282° West 309 356 24,600 1,500 Climbing New York Center
09:18PM 39.7856 -76.2631 218° Southwest 266 306 25,700 1,560 Climbing New York Center
09:20PM 39.5694 -76.3481 197° South 325 374 29,800 1,860 Climbing Washington Center
09:21PM 39.4817 -76.4061 207° Southwest 352 405 31,900 1,920 Climbing Washington Center
09:22PM 39.4164 -76.4994 228° Southwest 346 398 33,700 1,020 Climbing Washington Center
09:23PM 39.3489 -76.5900 226° Southwest 346 398 34,000 120 Climbing Washington Center
09:24PM 39.2878 -76.6831 230° Southwest 352 405 34,000  Level Washington Center
09:25PM 39.2264 -76.7731 229° Southwest 352 405 34,000  Level Washington Center
09:26PM 39.1650 -76.8658 230° Southwest 347 399 34,000  Level Washington Center
09:27PM 39.1017 -76.9556 228° Southwest 347 399 34,000  Level Washington Center
09:28PM 39.0400 -77.0453 229° Southwest 347 399 34,000  Level Washington Center
09:29PM 38.9683 -77.1242 221° Southwest 337 388 34,000 240 Level Washington Center
09:30PM 38.8986 -77.2000 220° Southwest 337 388 34,500 600 Climbing Washington Center
09:31PM 38.8267 -77.2758 219° Southwest 337 388 35,200 720 Climbing Washington Center
09:32PM 38.7567 -77.3539 221° Southwest 337 388 36,000 360 Climbing Washington Center
09:33PM 38.6847 -77.4319 220° Southwest 337 388 36,000  Level Washington Center
09:34PM 38.6103 -77.5100 219° Southwest 342 394 36,000  Level Washington Center
09:35PM 38.5383 -77.5903 221° Southwest 342 394 36,000  Level Washington Center
09:36PM 38.4658 -77.6706 221° Southwest 347 399 36,000  Level Washington Center
09:37PM 38.3936 -77.7481 220° Southwest 347 399 36,000  Level Washington Center
09:38PM 38.3192 -77.8281 220° Southwest 347 399 36,000  Level Washington Center
09:39PM 38.2469 -77.9078 221° Southwest 347 399 36,000  Level Washington Center
09:40PM 38.1722 -77.9872 220° Southwest 347 399 36,000  Level Washington Center
09:41PM 38.0956 -78.0667 219° Southwest 347 399 36,000  Level Washington Center
09:42PM 38.0167 -78.1511 220° Southwest 347 399 36,000  Level Washington Center
09:43PM 37.9400 -78.2275 218° Southwest 342 394 36,000  Level Washington Center
09:44PM 37.8633 -78.2983 216° Southwest 347 399 36,000  Level Washington Center
09:45PM 37.7844 -78.3744 217° Southwest 352 405 36,000  Level Washington Center
09:46PM 37.7056 -78.4503 217° Southwest 352 405 36,000  Level Washington Center
09:47PM 37.6264 -78.5233 216° Southwest 357 411 36,000  Level Washington Center
09:48PM 37.5539 -78.5914 217° Southwest 357 411 36,000  Level Washington Center
09:49PM 37.4725 -78.6692 217° Southwest 362 417 36,000  Level Washington Center
09:50PM 37.3894 -78.7442 216° Southwest 368 423 36,000  Level Washington Center
09:51PM 37.3081 -78.8192 216° Southwest 374 430 36,000  Level Washington Center
09:52PM 37.2161 -78.9042 216° Southwest 374 430 36,000  Level Washington Center
09:53PM 37.1347 -78.9814 217° Southwest 374 430 36,000  Level Washington Center
09:54PM 37.0511 -79.0583 216° Southwest 374 430 36,000  Level Washington Center
09:55PM 36.9675 -79.1350 216° Southwest 374 430 36,000  Level Washington Center
09:56PM 36.8858 -79.2119 217° Southwest 374 430 36,000  Level Washington Center
09:57PM 36.8086 -79.2808 216° Southwest 374 430 36,000  Level Washington Center
09:58PM 36.7269 -79.3572 217° Southwest 374 430 36,000  Level Washington Center
09:59PM 36.6431 -79.4361 217° Southwest 374 430 36,000  Level Washington Center
10:00PM 36.5594 -79.5094 215° Southwest 374 430 36,000  Level Washington Center
10:02PM 36.4153 -79.6400 216° Southwest 364 419 36,000  Level Atlanta Center
10:03PM 36.3244 -79.7222 216° Southwest 369 425 36,000  Level Atlanta Center
10:04PM 36.2436 -79.7936 215° Southwest 369 425 36,000  Level Atlanta Center
10:05PM 36.1628 -79.8697 217° Southwest 364 419 36,000  Level Atlanta Center
10:06PM 36.0817 -79.9433 216° Southwest 364 419 36,000  Level Atlanta Center
10:07PM 36.0022 -79.9961 208° Southwest 364 419 36,000  Level Atlanta Center
10:08PM 35.9078 -80.0444 203° Southwest 364 419 36,000  Level Atlanta Center
10:09PM 35.8156 -80.0925 203° Southwest 370 426 36,000  Level Atlanta Center
10:10PM 35.7169 -80.1408 202° Southwest 376 433 36,000  Level Atlanta Center
10:11PM 35.6122 -80.1969 204° Southwest 376 433 36,000  Level Atlanta Center
10:12PM 35.5156 -80.2447 202° Southwest 376 433 36,000  Level Atlanta Center
10:13PM 35.4192 -80.2925 202° Southwest 376 433 36,000  Level Atlanta Center
10:14PM 35.3183 -80.3428 202° Southwest 381 438 36,000  Level Atlanta Center
10:15PM 35.2197 -80.3906 202° Southwest 381 438 36,000  Level Atlanta Center
10:19PM 34.8208 -80.5864 202° Southwest 390 449 36,000  Level Jacksonville Center
10:20PM 34.7239 -80.6369 203° Southwest 384 442 36,000  Level Jacksonville Center
10:21PM 34.6267 -80.6822 201° Southwest 384 442 36,000  Level Jacksonville Center
10:22PM 34.5336 -80.7325 204° Southwest 390 449 36,000  Level Jacksonville Center
10:23PM 34.4342 -80.7778 201° Southwest 390 449 36,000  Level Jacksonville Center
10:24PM 34.3328 -80.8231 200° South 390 449 36,000  Level Jacksonville Center
10:25PM 34.2292 -80.8783 204° Southwest 385 443 36,000  Level Jacksonville Center
10:26PM 34.1300 -80.9258 202° Southwest 380 437 36,000  Level Jacksonville Center
10:27PM 34.0283 -80.9756 202° Southwest 385 443 36,000  Level Jacksonville Center
10:28PM 33.9289 -81.0228 202° Southwest 393 452 36,000  Level Jacksonville Center
10:29PM 33.8356 -81.0647 200° South 393 452 36,000  Level Jacksonville Center
10:30PM 33.7239 -81.1247 204° Southwest 393 452 36,000  Level Jacksonville Center
10:31PM 33.6222 -81.1742 202° Southwest 393 452 36,000  Level Jacksonville Center
10:32PM 33.5206 -81.2233 202° Southwest 393 452 36,000  Level Jacksonville Center
10:33PM 33.4192 -81.2750 203° Southwest 393 452 36,000  Level Jacksonville Center
10:34PM 33.3258 -81.3189 201° Southwest 393 452 36,000  Level Jacksonville Center
10:35PM 33.2261 -81.3656 201° Southwest 393 452 36,000  Level Jacksonville Center
10:36PM 33.1225 -81.4192 203° Southwest 393 452 36,000  Level Jacksonville Center
10:37PM 33.0206 -81.4681 202° Southwest 393 452 36,000  Level Jacksonville Center
10:38PM 32.9189 -81.5192 203° Southwest 393 452 36,000  Level Jacksonville Center
10:39PM 32.8131 -81.5678 201° Southwest 393 452 36,000  Level Jacksonville Center
10:40PM 32.7114 -81.6186 203° Southwest 393 452 36,000  Level Jacksonville Center
10:41PM 32.6094 -81.6669 202° Southwest 398 458 36,000  Level Jacksonville Center
10:42PM 32.4931 -81.7203 201° Southwest 398 458 36,000  Level Jacksonville Center
10:43PM 32.3892 -81.7708 202° Southwest 403 464 36,000  Level Jacksonville Center
10:44PM 32.2956 -81.8161 202° Southwest 408 470 36,000  Level Jacksonville Center
10:45PM 32.1811 -81.8714 202° Southwest 408 470 36,000  Level Jacksonville Center
10:46PM 32.0875 -81.9167 202° Southwest 408 470 36,000  Level Jacksonville Center
10:47PM 31.9711 -81.9692 201° Southwest 408 470 36,000  Level Jacksonville Center
10:48PM 31.8650 -82.0094 198° South 408 470 36,000  Level Jacksonville Center
10:49PM 31.7669 -82.0494 199° South 408 470 36,000  Level Jacksonville Center
10:50PM 31.6589 -82.0944 200° South 431 496 36,000  Level Jacksonville Center
10:51PM 31.5356 -82.1125 187° South 401 461 36,000  Level Jacksonville Center
10:52PM 31.4328 -82.0283 145° Southeast 460 529 36,000  Level Jacksonville Center
10:53PM 31.3444 -81.9147 132° Southeast 468 539 36,000  Level Jacksonville Center
10:54PM 31.2558 -81.8064 134° Southeast 468 539 36,000  Level Jacksonville Center
10:55PM 31.1386 -81.7956 175° South 403 464 36,000  Level Jacksonville Center
10:56PM 31.0325 -81.8378 199° South 387 445 36,000  Level Jacksonville Center
10:57PM 30.9222 -81.8803 198° South 392 451 36,000  Level Jacksonville Center
10:58PM 30.8139 -81.9203 198° South 399 459 36,000  Level Jacksonville Center
10:59PM 30.7036 -81.9625 198° South 409 471 36,000  Level Jacksonville Center
11:00PM 30.6017 -81.9972 196° South 421 484 36,000  Level Jacksonville Center
11:01PM 30.4911 -82.0319 195° South 421 484 36,000  Level Jacksonville Center
11:02PM 30.3808 -82.0739 198° South 416 479 36,000  Level Jacksonville Center
11:03PM 30.2703 -82.1133 197° South 421 484 36,000  Level Jacksonville Center
11:04PM 30.1578 -82.1503 196° South 421 484 36,000 -420 Level Jacksonville Center
11:05PM 30.0389 -82.1608 184° South 421 484 35,200 -1,380 Descending Jacksonville Center
11:06PM 29.9158 -82.1736 185° South 433 498 33,300 -1,980 Descending Jacksonville Center
11:07PM 29.7928 -82.1817 183° South 444 511 31,300 -2,160 Descending Jacksonville Center
11:08PM 29.6653 -82.1897 183° South 449 517 29,000 -2,220 Descending Jacksonville Center
11:09PM 29.5278 -82.1981 183° South 456 525 26,900 -2,160 Descending Jacksonville Center
11:10PM 29.4025 -82.2108 185° South 456 525 24,700 -2,160 Descending Jacksonville Center
11:11PM 29.2794 -82.2189 183° South 456 525 22,600 -2,100 Descending Jacksonville Center
11:12PM 29.1625 -82.2267 183° South 444 511 20,500 -2,100 Descending Jacksonville Center
11:13PM 29.0436 -82.2347 183° South 433 498 18,400 -2,100 Descending Jacksonville Center
11:14PM 28.9308 -82.2450 185° South 422 486 16,300 -1,740 Descending Jacksonville Center
11:16PM 28.6833 -82.2667 184° South 382 440 12,900 -1,380 Descending Tampa TRACON
11:17PM 28.5833 -82.2500 172° South 377 434 11,900 -1,080 Descending Tampa TRACON
11:18PM 28.5000 -82.2500 180° South 333 383 10,800 -1,200 Descending Tampa TRACON
11:19PM 28.4167 -82.2500 180° South 298 343 9,500 -1,500 Descending Tampa TRACON
11:20PM 28.3500 -82.2667 192° South 286 329 8,200 -1,260 Descending Tampa TRACON
11:21PM 28.2833 -82.3333 221° Southwest 277 319 7,300 -600 Descending Tampa TRACON
11:22PM 28.2333 -82.3833 221° Southwest 273 314 7,000 -360 Descending Tampa TRACON
11:23PM 28.1333 -82.4167 196° South 257 296 6,600 -720 Descending Tampa TRACON
11:24PM 28.0667 -82.4167 180° South 254 292 5,400 -840 Descending Tampa TRACON
11:25PM 28.0000 -82.4167 180° South 252 290 5,000 -240 Descending Tampa TRACON
11:26PM 27.9333 -82.4167 180° South 232 267 5,000  Level Tampa TRACON
11:27PM 27.8667 -82.4167 180° South 228 262 5,100 -300 Climbing Tampa TRACON
11:28PM 27.8000 -82.4167 180° South 229 264 4,500 -540 Descending Tampa TRACON
11:29PM 27.7667 -82.4167 180° South 227 261 4,200 -360 Descending Tampa TRACON
11:30PM 27.7167 -82.4167 180° South 213 245 4,000 -120 Descending Tampa TRACON
11:31PM 27.6500 -82.4500 204° Southwest 209 241 4,000 -300 Level Tampa TRACON
11:32PM 27.6667 -82.5167 286° West 201 231 3,400 -600 Descending Tampa TRACON
11:33PM 27.7167 -82.5333 344° North 201 231 2,900 -420 Descending Tampa TRACON
11:34PM 27.7667 -82.5500 344° North 180 207 2,600 -300 Descending Tampa TRACON